Alafaya, Florida
Current Conditions -  °F | °C
As of 7:53 AM on Saturday 01 Nov 2014 (Local Time) from KMCO Reporting Station
Scattered Clouds Scattered Clouds  
Wind Chill: 57°   Ceiling: Unl
Heat Index: 57°   Visibility: 10mi
Dew Point: 46°   Wind: 16mph
Humidity: 67%   Direction: 310°NW
Pressure: 29.97"   Gusts: 21mph
Location:  28.4078°N, 81.0314°W
Report Text: KMCO 011153Z 31014G18KT 10SM SCT070 14/08 A2997 RMK AO2 PK WND 31028/1109 SLP146 T01390078 10167 20117 53026
Loading
Personal Weather Stations






























Interactive Weather Map
Tropical Storm Tracking
New forecast layout! Learn more

10-Day Weather Forecast

Advertisements
Track Severe Weather on mobile